Time;durP1;ratioP1;P1;durP2;ratioP2;P2;SDS_P1;SDS_P2;PMS_P1;PMS_P2;Temp;Humidity;BMP_temperature;BMP_pressure;BME280_temperature;BME280_humidity;BME280_pressure;Samples;Min_cycle;Max_cycle;Signal;HPM_P1;HPM_P2
2022/12/06 00:02:06;;;;;;;13.83;9.77;;;3.80;99.90;;;;;;5075561;28;20181;-30
2022/12/06 00:04:32;;;;;;;10.97;9.73;;;3.80;99.90;;;;;;5085949;28;20521;-30
2022/12/06 00:06:57;;;;;;;13.20;9.93;;;3.80;99.90;;;;;;5091853;28;20184;-30
2022/12/06 00:09:27;;;;;;;14.43;10.03;;;3.90;99.90;;;;;;5087541;28;20214;-30
2022/12/06 00:11:54;;;;;;;13.20;10.60;;;3.60;99.90;;;;;;5086530;28;20192;-30
2022/12/06 00:14:20;;;;;;;12.47;9.47;;;3.70;99.90;;;;;;5087288;28;20553;-30
2022/12/06 00:16:46;;;;;;;14.67;10.10;;;3.70;99.90;;;;;;5087400;28;20527;-30
2022/12/06 00:19:14;;;;;;;13.03;9.77;;;3.80;99.90;;;;;;5087563;28;20454;-30
2022/12/06 00:21:40;;;;;;;14.93;10.67;;;3.60;99.90;;;;;;5087294;28;20479;-30
2022/12/06 00:24:10;;;;;;;17.27;11.20;;;3.80;99.90;;;;;;5087511;28;21008;-30
2022/12/06 00:26:37;;;;;;;12.10;10.30;;;3.90;99.90;;;;;;5087566;28;20686;-30
2022/12/06 00:29:03;;;;;;;16.67;12.23;;;3.80;99.90;;;;;;5087335;28;20474;-30
2022/12/06 00:31:31;;;;;;;15.93;11.53;;;3.60;99.90;;;;;;5086852;28;20890;-30
2022/12/06 00:33:57;;;;;;;18.53;11.87;;;3.70;99.90;;;;;;5086285;28;20426;-30
2022/12/06 00:36:32;;;;;;;14.50;11.30;;;3.60;99.90;;;;;;5087222;28;20425;-30
2022/12/06 00:38:59;;;;;;;16.53;11.87;;;3.60;99.90;;;;;;5086739;28;20434;-30
2022/12/06 00:41:25;;;;;;;20.23;12.40;;;3.70;99.90;;;;;;5087026;28;20426;-30
2022/12/06 00:43:51;;;;;;;18.40;12.53;;;3.70;99.90;;;;;;5088748;28;20796;-30
2022/12/06 00:46:23;;;;;;;16.93;11.80;;;3.70;99.90;;;;;;5090539;28;20418;-30
2022/12/06 00:48:50;;;;;;;18.73;13.40;;;3.80;99.90;;;;;;5090513;28;20423;-30
2022/12/06 00:51:18;;;;;;;20.70;12.67;;;3.90;99.90;;;;;;5090924;28;20784;-30
2022/12/06 00:53:44;;;;;;;17.60;11.60;;;3.80;99.90;;;;;;5090210;28;20422;-30
2022/12/06 00:56:10;;;;;;;20.40;13.03;;;3.80;99.90;;;;;;5090793;28;20434;-30
2022/12/06 00:58:35;;;;;;;20.47;14.50;;;3.60;99.90;;;;;;5090043;28;20418;-30
2022/12/06 01:01:16;;;;;;;23.57;13.33;;;3.80;99.90;;;;;;5090581;28;20457;-30
2022/12/06 01:03:43;;;;;;;23.43;12.40;;;3.80;99.90;;;;;;5082594;28;20181;-30
2022/12/06 01:06:11;;;;;;;23.27;12.90;;;3.70;99.90;;;;;;5101436;28;20417;-30
2022/12/06 01:08:38;;;;;;;34.30;14.10;;;3.60;99.90;;;;;;5088792;28;21027;-30
2022/12/06 01:11:04;;;;;;;21.93;13.67;;;3.90;99.90;;;;;;5088949;28;20457;-30
2022/12/06 01:13:30;;;;;;;19.87;12.73;;;3.80;99.90;;;;;;5089968;28;20415;-30
2022/12/06 01:15:56;;;;;;;21.87;12.83;;;3.60;99.90;;;;;;5090183;28;20446;-30
2022/12/06 01:18:22;;;;;;;20.40;13.57;;;3.70;99.90;;;;;;5090069;28;20189;-30
2022/12/06 01:20:48;;;;;;;19.13;12.27;;;3.80;99.90;;;;;;5088817;28;20450;-30
2022/12/06 01:23:14;;;;;;;17.50;12.90;;;3.80;99.90;;;;;;5089716;28;20204;-30
2022/12/06 01:25:51;;;;;;;20.13;12.33;;;3.80;99.90;;;;;;5090319;28;20432;-30
2022/12/06 01:28:17;;;;;;;20.50;13.67;;;3.80;99.90;;;;;;5090196;28;20414;-30
2022/12/06 01:30:43;;;;;;;18.67;12.27;;;3.60;99.90;;;;;;5089694;28;20511;-30
2022/12/06 01:33:08;;;;;;;16.90;12.13;;;3.70;99.90;;;;;;5089720;28;20902;-30
2022/12/06 01:35:39;;;;;;;21.43;13.70;;;3.90;99.90;;;;;;5088897;28;20215;-30
2022/12/06 01:38:04;;;;;;;16.37;11.67;;;3.80;99.90;;;;;;5089979;28;20188;-30
2022/12/06 01:40:42;;;;;;;15.33;11.13;;;3.70;99.90;;;;;;5087975;28;20447;-30
2022/12/06 01:43:45;;;;;;;17.63;11.00;;;3.80;99.90;;;;;;5089875;28;20176;-30
2022/12/06 01:46:38;;;;;;;17.53;11.23;;;3.90;99.90;;;;;;5089814;28;20495;-30
2022/12/06 01:49:17;;;;;;;18.13;11.90;;;3.70;99.90;;;;;;5089549;28;20450;-30
2022/12/06 01:51:52;;;;;;;15.20;11.57;;;3.80;99.90;;;;;;5089819;28;20687;-30
2022/12/06 01:54:19;;;;;;;16.20;11.20;;;3.80;99.90;;;;;;5089184;28;20421;-30
2022/12/06 01:56:46;;;;;;;14.70;11.20;;;3.80;99.90;;;;;;5089059;28;20455;-30
2022/12/06 01:59:12;;;;;;;15.57;11.23;;;3.60;99.90;;;;;;5089117;28;20407;-30
2022/12/06 02:01:39;;;;;;;17.33;11.37;;;3.70;99.90;;;;;;5089547;28;20418;-30
2022/12/06 02:04:05;;;;;;;16.43;11.03;;;3.60;99.90;;;;;;5085099;28;20429;-30
2022/12/06 02:06:31;;;;;;;18.73;11.90;;;3.80;99.90;;;;;;5097153;28;20932;-30
2022/12/06 02:08:59;;;;;;;16.63;11.50;;;3.80;99.90;;;;;;5088887;28;20415;-30
2022/12/06 02:11:25;;;;;;;17.80;11.30;;;3.90;99.90;;;;;;5089387;28;20414;-30
2022/12/06 02:13:51;;;;;;;20.33;12.40;;;3.80;99.90;;;;;;5088916;28;20940;-30
2022/12/06 02:16:41;;;;;;;16.33;11.63;;;3.80;99.90;;;;;;5089183;28;20204;-30
2022/12/06 02:19:28;;;;;;;16.03;10.73;;;3.80;99.90;;;;;;5089159;28;20403;-30
2022/12/06 02:22:07;;;;;;;13.53;11.00;;;3.90;99.90;;;;;;5089288;28;20829;-30
2022/12/06 02:24:59;;;;;;;16.07;11.80;;;3.70;99.90;;;;;;5088912;28;20403;-30
2022/12/06 02:28:02;;;;;;;14.80;10.70;;;3.80;99.90;;;;;;5089308;28;20430;-30
2022/12/06 02:31:00;;;;;;;15.30;11.23;;;3.90;99.90;;;;;;5088645;28;20403;-30
2022/12/06 02:34:02;;;;;;;15.83;10.47;;;3.80;99.90;;;;;;5087960;28;20418;-30
2022/12/06 02:36:49;;;;;;;16.80;11.03;;;3.90;99.90;;;;;;5088887;28;20406;-30
2022/12/06 02:39:26;;;;;;;17.30;10.53;;;3.90;99.90;;;;;;5088270;28;20886;-30
2022/12/06 02:42:17;;;;;;;18.80;11.80;;;3.90;99.90;;;;;;5089018;28;20402;-30
2022/12/06 02:44:52;;;;;;;15.40;11.20;;;3.80;99.90;;;;;;5088548;28;20455;-30
2022/12/06 02:47:21;;;;;;;17.40;10.87;;;3.60;99.90;;;;;;5089202;28;20410;-30
2022/12/06 02:49:53;;;;;;;14.77;11.17;;;3.80;99.90;;;;;;5088403;28;20863;-30
2022/12/06 02:52:23;;;;;;;16.97;11.40;;;3.90;99.90;;;;;;5088701;28;20504;-30
2022/12/06 02:54:50;;;;;;;22.70;11.27;;;3.80;99.90;;;;;;5088375;28;20434;-30
2022/12/06 02:57:22;;;;;;;15.23;11.20;;;4.00;99.90;;;;;;5088583;28;20406;-30
2022/12/06 02:59:52;;;;;;;21.17;12.20;;;3.90;99.90;;;;;;5088056;28;20537;-30
2022/12/06 03:02:18;;;;;;;16.67;11.33;;;3.80;99.90;;;;;;5088416;28;20912;-30
2022/12/06 03:05:14;;;;;;;23.93;11.00;;;3.60;99.90;;;;;;5088220;28;20420;-30
2022/12/06 03:07:44;;;;;;;18.20;11.60;;;3.70;99.90;;;;;;5088385;28;20406;-30
2022/12/06 03:10:39;;;;;;;16.63;11.23;;;3.80;99.90;;;;;;5087884;28;20691;-30
2022/12/06 03:13:22;;;;;;;20.80;10.70;;;3.70;99.90;;;;;;5073704;28;20419;-30
2022/12/06 03:15:56;;;;;;;13.70;10.50;;;3.60;99.90;;;;;;5068161;28;20422;-30
2022/12/06 03:18:40;;;;;;;16.90;11.30;;;3.90;99.90;;;;;;5066282;28;20419;-30
2022/12/06 03:21:11;;;;;;;20.43;11.93;;;3.90;99.90;;;;;;5067754;28;20477;-30
2022/12/06 03:23:44;;;;;;;19.73;11.63;;;3.80;99.90;;;;;;5067776;28;20855;-30
2022/12/06 03:26:14;;;;;;;19.33;11.80;;;4.00;99.90;;;;;;5067843;28;20522;-30
2022/12/06 03:28:42;;;;;;;16.33;10.90;;;3.80;99.90;;;;;;5066027;28;20682;-30
2022/12/06 03:31:11;;;;;;;14.90;11.20;;;3.80;99.90;;;;;;5066431;28;20926;-30
2022/12/06 03:33:41;;;;;;;25.60;11.73;;;3.80;99.90;;;;;;5065362;28;20416;-30
2022/12/06 03:36:09;;;;;;;20.20;11.40;;;3.80;99.90;;;;;;5067719;28;20419;-30
2022/12/06 03:38:44;;;;;;;20.80;11.90;;;3.70;99.90;;;;;;5067378;28;20724;-30
2022/12/06 03:41:13;;;;;;;15.27;11.00;;;3.90;99.90;;;;;;5067556;28;20469;-30
2022/12/06 03:43:39;;;;;;;23.80;11.50;;;3.90;99.90;;;;;;5067535;28;20794;-30
2022/12/06 03:46:11;;;;;;;17.43;11.90;;;3.70;99.90;;;;;;5067893;28;20510;-30
2022/12/06 03:48:45;;;;;;;20.27;12.17;;;3.70;99.90;;;;;;5067288;28;20411;-30
2022/12/06 03:51:20;;;;;;;19.97;11.40;;;3.80;99.90;;;;;;5068039;28;20503;-30
2022/12/06 03:53:52;;;;;;;19.90;12.67;;;3.70;99.90;;;;;;5067040;28;20411;-30
2022/12/06 03:56:19;;;;;;;23.27;12.10;;;3.80;99.90;;;;;;5067698;28;20423;-30
2022/12/06 03:58:45;;;;;;;18.47;11.07;;;3.90;99.90;;;;;;5067090;28;20416;-30
2022/12/06 04:01:11;;;;;;;24.50;11.93;;;3.80;99.90;;;;;;5067562;28;20458;-30
2022/12/06 04:03:37;;;;;;;19.97;12.53;;;3.90;99.90;;;;;;5077880;28;20479;-30
2022/12/06 04:06:05;;;;;;;21.33;11.53;;;3.60;99.90;;;;;;5088139;28;20407;-30
2022/12/06 04:08:31;;;;;;;22.57;11.67;;;3.80;99.90;;;;;;5087367;28;20409;-30
2022/12/06 04:10:56;;;;;;;24.60;12.07;;;3.90;99.90;;;;;;5087786;28;20418;-30
2022/12/06 04:13:22;;;;;;;18.77;11.53;;;3.90;99.90;;;;;;5070893;28;20656;-30
2022/12/06 04:15:48;;;;;;;19.10;12.20;;;3.80;99.90;;;;;;5067144;28;20216;-30
2022/12/06 04:18:14;;;;;;;14.83;10.87;;;3.70;99.90;;;;;;5068454;28;20263;-30
2022/12/06 04:23:25;;;;;;;20.23;11.53;;;3.70;99.90;;;;;;5071170;28;20518;-30
2022/12/06 04:25:51;;;;;;;27.13;12.30;;;4.00;99.90;;;;;;5071242;28;20418;-30
2022/12/06 04:39:14;;;;;;;23.93;12.33;;;3.90;99.90;;;;;;5070920;28;20856;-30
2022/12/06 04:44:25;;;;;;;28.47;13.20;;;3.90;99.90;;;;;;5070832;28;20181;-30
2022/12/06 04:46:50;;;;;;;23.73;11.50;;;4.00;99.90;;;;;;5070706;28;20461;-30
2022/12/06 04:49:16;;;;;;;21.17;13.10;;;4.10;99.90;;;;;;5070984;28;20200;-30
2022/12/06 04:51:42;;;;;;;20.77;12.90;;;4.00;99.90;;;;;;5070734;28;20207;-30
2022/12/06 04:54:07;;;;;;;21.50;12.73;;;4.10;99.90;;;;;;5070281;28;20208;-30
2022/12/06 04:56:33;;;;;;;37.60;13.33;;;4.00;99.90;;;;;;5070304;28;20185;-30
2022/12/06 04:58:59;;;;;;;27.67;13.20;;;4.10;99.90;;;;;;5070539;28;20196;-30
2022/12/06 05:01:24;;;;;;;29.20;14.80;;;4.00;99.90;;;;;;5070533;28;20225;-30
2022/12/06 05:03:50;;;;;;;34.53;13.27;;;4.20;99.90;;;;;;5084192;28;20658;-30
2022/12/06 05:06:15;;;;;;;24.83;13.63;;;4.20;99.90;;;;;;5091132;28;20575;-30
2022/12/06 05:08:41;;;;;;;22.50;13.70;;;4.10;99.90;;;;;;5090120;28;20184;-30
2022/12/06 05:11:07;;;;;;;23.37;13.07;;;4.00;99.90;;;;;;5090748;28;20184;-30
2022/12/06 05:13:33;;;;;;;23.13;13.67;;;4.20;99.90;;;;;;5071890;28;20227;-30
2022/12/06 05:16:01;;;;;;;20.90;12.90;;;4.30;99.90;;;;;;5070146;28;20621;-30
2022/12/06 05:18:27;;;;;;;26.30;13.73;;;4.10;99.90;;;;;;5069770;28;20272;-30
2022/12/06 05:21:11;;;;;;;23.47;13.10;;;4.10;99.90;;;;;;5070138;28;20546;-30
2022/12/06 05:23:37;;;;;;;38.33;14.07;;;4.10;99.90;;;;;;5069935;28;20420;-30
2022/12/06 05:26:05;;;;;;;21.50;13.30;;;4.10;99.90;;;;;;5068672;28;20461;-30
2022/12/06 05:28:32;;;;;;;22.37;13.00;;;4.10;99.90;;;;;;5069571;28;20260;-30
2022/12/06 05:30:58;;;;;;;28.73;13.60;;;4.20;99.90;;;;;;5068840;28;20416;-30
2022/12/06 05:33:24;;;;;;;22.50;12.97;;;4.20;99.90;;;;;;5068388;28;20450;-30
2022/12/06 05:35:50;;;;;;;22.13;14.43;;;4.30;99.90;;;;;;5069097;28;20943;-30
2022/12/06 05:38:17;;;;;;;23.40;14.37;;;4.20;99.90;;;;;;5069983;28;20739;-30
2022/12/06 05:40:43;;;;;;;25.20;13.77;;;4.00;99.90;;;;;;5069234;28;20464;-30
2022/12/06 05:43:09;;;;;;;22.20;14.10;;;4.20;99.90;;;;;;5081855;28;20438;-30
2022/12/06 05:45:36;;;;;;;21.73;12.20;;;4.20;99.90;;;;;;5075380;28;20462;-30
2022/12/06 05:48:01;;;;;;;24.03;12.90;;;4.20;99.90;;;;;;5087134;28;20442;-30
2022/12/06 05:50:27;;;;;;;21.37;12.67;;;4.20;99.90;;;;;;5080671;28;20434;-30
2022/12/06 05:52:58;;;;;;;22.87;12.70;;;4.40;99.90;;;;;;5089050;28;20288;-30
2022/12/06 05:55:24;;;;;;;22.80;13.20;;;4.20;99.90;;;;;;5105371;28;20247;-30
2022/12/06 05:57:51;;;;;;;21.93;13.20;;;4.20;99.90;;;;;;5089900;28;20834;-30
2022/12/06 06:00:18;;;;;;;17.50;12.43;;;4.20;99.90;;;;;;5089126;28;20543;-30
2022/12/06 06:02:45;;;;;;;26.90;13.90;;;4.30;99.90;;;;;;5084407;28;20408;-30
2022/12/06 06:05:11;;;;;;;19.97;13.30;;;4.30;99.90;;;;;;5067646;28;20911;-30
2022/12/06 06:07:37;;;;;;;18.80;12.90;;;4.20;99.90;;;;;;5069207;28;20404;-30
2022/12/06 06:10:05;;;;;;;26.73;14.33;;;4.10;99.90;;;;;;5074492;28;20443;-30
2022/12/06 06:12:31;;;;;;;29.50;13.83;;;4.20;99.90;;;;;;5077624;28;20708;-30
2022/12/06 06:14:57;;;;;;;26.63;14.47;;;4.30;99.90;;;;;;5077897;28;20497;-30
2022/12/06 06:17:23;;;;;;;21.30;14.07;;;4.20;99.90;;;;;;5094883;28;20446;-30
2022/12/06 06:19:49;;;;;;;23.13;12.63;;;4.10;99.90;;;;;;5078564;28;20613;-30
2022/12/06 06:22:15;;;;;;;19.80;13.30;;;4.20;99.90;;;;;;5084573;28;20425;-30
2022/12/06 06:24:41;;;;;;;23.10;12.70;;;4.50;99.90;;;;;;5081473;28;20897;-30
2022/12/06 06:27:07;;;;;;;21.33;12.40;;;4.40;99.90;;;;;;5087426;28;20184;-30
2022/12/06 06:29:33;;;;;;;26.13;14.33;;;4.40;99.90;;;;;;5086845;28;20823;-29
2022/12/06 06:31:59;;;;;;;20.83;12.80;;;4.30;99.90;;;;;;5080166;28;20426;-30
2022/12/06 06:34:25;;;;;;;20.70;13.50;;;4.20;99.90;;;;;;5085959;28;20822;-30
2022/12/06 06:36:51;;;;;;;17.63;12.20;;;4.20;99.90;;;;;;5104767;28;20192;-30
2022/12/06 06:39:17;;;;;;;19.30;12.60;;;4.40;99.90;;;;;;5087967;28;20418;-30
2022/12/06 06:41:44;;;;;;;17.37;11.90;;;4.30;99.90;;;;;;5086864;28;20415;-30
2022/12/06 06:44:10;;;;;;;18.50;12.43;;;4.40;99.90;;;;;;5088386;28;21103;-30
2022/12/06 06:46:35;;;;;;;18.93;12.20;;;4.30;99.90;;;;;;5083977;28;20442;-30
2022/12/06 06:49:02;;;;;;;18.50;11.70;;;4.30;99.90;;;;;;5082978;28;20189;-30
2022/12/06 06:51:30;;;;;;;17.27;12.07;;;4.40;99.90;;;;;;5088617;28;20425;-30
2022/12/06 06:53:57;;;;;;;18.90;11.63;;;4.50;99.90;;;;;;5088533;28;20425;-30
2022/12/06 06:56:22;;;;;;;15.17;10.80;;;4.60;99.90;;;;;;5088503;28;20410;-30
2022/12/06 06:58:48;;;;;;;17.63;12.53;;;4.30;99.90;;;;;;5086277;28;20488;-30
2022/12/06 07:01:18;;;;;;;17.60;12.10;;;4.60;99.90;;;;;;5075367;28;20208;-30
2022/12/06 07:03:43;;;;;;;16.70;11.77;;;4.60;99.90;;;;;;5083333;28;20279;-30
2022/12/06 07:06:10;;;;;;;15.70;12.10;;;4.70;99.90;;;;;;5080783;28;20513;-30
2022/12/06 07:08:37;;;;;;;22.17;11.47;;;4.40;99.90;;;;;;5079156;28;20220;-30
2022/12/06 07:11:03;;;;;;;17.30;10.60;;;4.70;99.90;;;;;;5087504;28;20444;-30
2022/12/06 07:13:29;;;;;;;16.83;11.20;;;4.60;99.90;;;;;;5072985;28;20431;-30
2022/12/06 07:15:57;;;;;;;18.83;12.00;;;4.50;99.90;;;;;;5087716;28;20533;-30
2022/12/06 07:18:22;;;;;;;25.17;12.37;;;4.40;99.90;;;;;;5078037;28;20431;-30
2022/12/06 07:20:56;;;;;;;19.60;12.90;;;4.60;99.90;;;;;;5086733;28;20720;-30
2022/12/06 07:23:23;;;;;;;18.77;11.60;;;4.40;99.90;;;;;;5067798;28;20230;-30
2022/12/06 07:25:59;;;;;;;25.30;13.90;;;4.60;99.90;;;;;;5067723;28;20416;-30
2022/12/06 07:28:24;;;;;;;22.20;14.07;;;4.50;99.90;;;;;;5067410;28;20422;-30
2022/12/06 07:30:50;;;;;;;17.60;12.90;;;4.60;99.90;;;;;;5067828;28;20415;-30
2022/12/06 07:33:16;;;;;;;19.30;13.50;;;4.50;99.90;;;;;;5067599;28;20540;-30
2022/12/06 07:35:41;;;;;;;24.03;13.77;;;4.60;99.90;;;;;;5079678;28;20196;-30
2022/12/06 07:38:07;;;;;;;20.23;13.33;;;4.50;99.90;;;;;;5087905;28;20181;-30
2022/12/06 07:40:33;;;;;;;32.90;13.87;;;4.60;99.90;;;;;;5086666;28;20252;-30
2022/12/06 07:45:42;;;;;;;20.50;14.37;;;4.70;99.90;;;;;;5087984;28;20204;-30
2022/12/06 07:48:10;;;;;;;18.13;13.23;;;4.60;99.90;;;;;;5088238;28;21081;-30
2022/12/06 07:50:35;;;;;;;23.13;14.40;;;4.60;99.90;;;;;;5087618;28;20577;-30
2022/12/06 07:53:01;;;;;;;22.33;14.53;;;4.60;99.90;;;;;;5088237;28;20430;-30
2022/12/06 07:55:26;;;;;;;29.10;15.37;;;4.80;99.90;;;;;;5091870;28;20188;-30
2022/12/06 07:57:52;;;;;;;25.27;15.07;;;4.60;99.90;;;;;;5092149;28;20188;-30
2022/12/06 08:00:18;;;;;;;22.50;15.20;;;4.50;99.90;;;;;;5107378;28;20578;-30
2022/12/06 08:02:44;;;;;;;25.73;13.93;;;4.60;99.90;;;;;;5087182;28;20224;-30
2022/12/06 08:05:10;;;;;;;24.47;15.57;;;4.60;99.90;;;;;;5071776;28;20455;-30
2022/12/06 08:07:36;;;;;;;23.30;15.27;;;4.80;99.90;;;;;;5071876;28;20560;-30
2022/12/06 08:10:03;;;;;;;23.70;14.83;;;4.70;99.90;;;;;;5071094;28;20437;-30
2022/12/06 08:12:30;;;;;;;35.70;17.30;;;4.70;99.90;;;;;;5080775;28;20186;-30
2022/12/06 08:14:56;;;;;;;26.00;15.17;;;4.60;99.90;;;;;;5091696;28;20501;-30
2022/12/06 08:17:22;;;;;;;24.43;16.10;;;4.60;99.90;;;;;;5091987;28;20537;-30
2022/12/06 08:19:47;;;;;;;23.87;14.67;;;4.70;99.90;;;;;;5091198;28;20204;-30
2022/12/06 08:22:13;;;;;;;26.67;17.03;;;4.70;99.90;;;;;;5091731;28;20180;-30
2022/12/06 08:24:39;;;;;;;37.47;17.63;;;4.70;99.90;;;;;;5091278;28;20329;-30
2022/12/06 08:27:04;;;;;;;25.70;16.07;;;4.90;99.90;;;;;;5107474;28;20262;-30
2022/12/06 08:29:30;;;;;;;24.57;15.00;;;5.00;99.90;;;;;;5091107;28;20524;-30
2022/12/06 08:31:56;;;;;;;24.00;15.47;;;5.00;99.90;;;;;;5091698;28;20177;-30
2022/12/06 08:34:21;;;;;;;24.77;15.80;;;4.90;99.90;;;;;;5089889;28;20181;-30
2022/12/06 08:36:47;;;;;;;24.30;15.90;;;4.90;99.90;;;;;;5091418;28;20478;-30
2022/12/06 08:39:13;;;;;;;23.50;16.10;;;4.70;99.90;;;;;;5091233;28;20732;-29
2022/12/06 08:41:54;;;;;;;23.77;14.20;;;4.90;99.90;;;;;;5091222;28;20179;-29
2022/12/06 08:44:20;;;;;;;26.13;15.40;;;5.00;99.90;;;;;;5091290;28;20436;-30
2022/12/06 08:46:47;;;;;;;24.23;15.40;;;5.00;99.90;;;;;;5091093;28;20865;-30
2022/12/06 08:49:14;;;;;;;21.50;14.87;;;4.80;99.90;;;;;;5091028;28;20421;-30
2022/12/06 08:51:40;;;;;;;23.50;15.67;;;5.00;99.90;;;;;;5090904;28;20414;-30
2022/12/06 08:54:07;;;;;;;23.77;16.10;;;5.00;99.90;;;;;;5090921;28;20497;-29
2022/12/06 08:56:34;;;;;;;27.03;16.17;;;4.80;99.90;;;;;;5090988;28;20825;-30
2022/12/06 08:59:00;;;;;;;25.47;15.67;;;5.10;99.90;;;;;;5091057;28;20426;-30
2022/12/06 09:01:29;;;;;;;22.77;14.73;;;5.10;99.90;;;;;;5091102;28;20470;-30
2022/12/06 09:03:55;;;;;;;21.83;14.33;;;4.90;99.90;;;;;;5075878;28;20188;-30
2022/12/06 09:06:21;;;;;;;27.63;15.77;;;4.80;99.90;;;;;;5070280;28;20415;-30
2022/12/06 09:08:47;;;;;;;23.90;14.07;;;5.00;99.90;;;;;;5070221;28;20930;-29
2022/12/06 09:11:14;;;;;;;23.57;13.30;;;5.10;99.90;;;;;;5070506;28;20945;-30
2022/12/06 09:13:41;;;;;;;18.30;11.87;;;5.10;99.90;;;;;;5089290;28;20426;-30
2022/12/06 09:16:09;;;;;;;22.20;12.80;;;5.10;99.90;;;;;;5089697;28;20805;-30
2022/12/06 09:18:35;;;;;;;17.50;12.37;;;5.00;99.90;;;;;;5077930;28;20418;-30
2022/12/06 09:21:15;;;;;;;20.13;12.10;;;5.10;99.90;;;;;;5079364;28;20477;-30
2022/12/06 09:23:41;;;;;;;19.00;12.40;;;5.20;99.90;;;;;;5080674;28;20426;-30
2022/12/06 09:26:07;;;;;;;16.07;11.40;;;5.00;99.90;;;;;;5070179;28;20472;-30
2022/12/06 09:28:35;;;;;;;16.33;11.40;;;5.30;99.90;;;;;;5079751;28;20192;-30
2022/12/06 09:31:02;;;;;;;13.10;9.57;;;5.20;99.90;;;;;;5089268;28;20422;-30
2022/12/06 09:33:27;;;;;;;13.87;9.13;;;5.20;99.90;;;;;;5087860;28;20515;-30
2022/12/06 09:35:53;;;;;;;13.90;9.80;;;5.30;99.90;;;;;;5089716;28;20472;-30
2022/12/06 09:38:21;;;;;;;12.30;8.87;;;5.10;99.90;;;;;;5089622;28;20192;-30
2022/12/06 09:41:14;;;;;;;9.70;8.30;;;5.30;99.90;;;;;;5089323;28;20215;-30
2022/12/06 09:43:57;;;;;;;13.23;10.03;;;5.10;99.90;;;;;;5089022;28;20421;-30
2022/12/06 09:46:56;;;;;;;12.47;8.50;;;5.20;99.90;;;;;;5090069;28;20421;-30
2022/12/06 09:49:49;;;;;;;12.40;7.60;;;5.30;99.90;;;;;;5078896;28;20645;-30
2022/12/06 09:52:39;;;;;;;11.47;7.50;;;5.30;99.90;;;;;;5089879;28;20473;-30
2022/12/06 09:55:37;;;;;;;9.73;6.97;;;5.30;99.90;;;;;;5089803;28;20422;-30
2022/12/06 09:58:23;;;;;;;8.63;7.37;;;5.40;99.90;;;;;;5089890;28;20496;-30
2022/12/06 10:01:02;;;;;;;10.80;8.20;;;5.20;99.90;;;;;;5089502;28;20462;-30
2022/12/06 10:04:14;;;;;;;12.80;9.47;;;5.40;99.90;;;;;;5078693;28;20878;-30
2022/12/06 10:07:06;;;;;;;8.90;6.90;;;5.40;99.90;;;;;;5069047;28;20441;-30
2022/12/06 10:09:57;;;;;;;10.00;6.60;;;5.50;99.90;;;;;;5069168;28;20469;-30
2022/12/06 10:12:26;;;;;;;11.03;7.03;;;5.20;99.90;;;;;;5077525;28;20406;-30
2022/12/06 10:15:37;;;;;;;11.60;8.07;;;5.30;99.90;;;;;;5089353;28;20589;-30
2022/12/06 10:18:20;;;;;;;9.73;6.63;;;5.40;99.90;;;;;;5089223;28;20503;-30
2022/12/06 10:20:58;;;;;;;11.10;7.53;;;5.40;99.90;;;;;;5088976;28;20466;-30
2022/12/06 10:23:42;;;;;;;11.87;7.30;;;5.30;99.90;;;;;;5089107;28;20422;-30
2022/12/06 10:26:15;;;;;;;10.00;7.40;;;5.30;99.90;;;;;;5089165;28;20410;-29
2022/12/06 10:28:50;;;;;;;10.87;6.80;;;5.50;99.90;;;;;;5089140;28;21030;-30
2022/12/06 10:31:22;;;;;;;9.50;6.37;;;5.40;99.90;;;;;;5089372;28;20425;-30
2022/12/06 10:34:05;;;;;;;9.20;6.77;;;5.50;99.90;;;;;;5087480;28;20449;-30
2022/12/06 10:36:43;;;;;;;10.20;7.10;;;5.40;99.90;;;;;;5089254;28;20407;-30
2022/12/06 10:39:43;;;;;;;9.13;7.40;;;5.50;99.90;;;;;;5088981;28;20442;-30
2022/12/06 10:42:30;;;;;;;7.30;6.30;;;5.40;99.90;;;;;;5088911;28;20438;-30
2022/12/06 10:45:02;;;;;;;10.23;6.93;;;5.60;99.90;;;;;;5088949;28;20402;-30
2022/12/06 10:47:35;;;;;;;14.70;10.53;;;5.50;99.90;;;;;;5088817;28;20487;-29
2022/12/06 10:50:25;;;;;;;10.27;9.27;;;5.50;99.90;;;;;;5088702;28;20433;-29
2022/12/06 10:53:05;;;;;;;8.47;7.37;;;5.50;99.90;;;;;;5088398;28;20556;-29
2022/12/06 10:55:38;;;;;;;10.30;7.70;;;5.40;99.90;;;;;;5089089;28;20498;-29
2022/12/06 10:58:28;;;;;;;10.47;7.87;;;5.40;99.90;;;;;;5088826;28;20444;-29
2022/12/06 11:00:58;;;;;;;9.37;6.97;;;5.40;99.90;;;;;;5088443;28;20442;-29
2022/12/06 11:03:54;;;;;;;9.70;7.00;;;5.50;99.90;;;;;;5078158;28;20415;-29
2022/12/06 11:06:31;;;;;;;9.60;7.57;;;5.50;99.90;;;;;;5068537;28;20505;-29
2022/12/06 11:09:22;;;;;;;10.37;7.93;;;5.60;99.90;;;;;;5067685;28;20975;-29
2022/12/06 11:11:49;;;;;;;9.87;7.70;;;5.40;99.90;;;;;;5071664;28;20505;-29
2022/12/06 11:14:22;;;;;;;10.00;7.07;;;5.80;99.90;;;;;;5088071;28;20410;-29
2022/12/06 11:17:03;;;;;;;8.50;7.03;;;5.70;99.90;;;;;;5088161;28;20426;-30
2022/12/06 11:19:34;;;;;;;10.37;6.43;;;5.70;99.90;;;;;;5087796;28;20437;-30
2022/12/06 11:22:29;;;;;;;9.20;5.73;;;5.50;99.90;;;;;;5087099;28;20417;-30
2022/12/06 11:25:08;;;;;;;9.27;6.67;;;5.60;99.90;;;;;;5080691;28;20821;-29
2022/12/06 11:27:40;;;;;;;12.27;8.20;;;5.50;99.90;;;;;;5087581;28;20402;-29
2022/12/06 11:30:14;;;;;;;10.50;7.20;;;5.80;99.90;;;;;;5087444;28;20418;-29
2022/12/06 11:32:41;;;;;;;9.53;6.57;;;5.70;99.90;;;;;;5088212;28;20445;-29
2022/12/06 11:35:13;;;;;;;8.10;6.50;;;5.60;99.90;;;;;;5086513;28;20461;-29
2022/12/06 11:37:39;;;;;;;9.13;7.00;;;5.50;99.90;;;;;;5088144;28;20418;-29
2022/12/06 11:40:07;;;;;;;10.97;7.27;;;5.90;99.90;;;;;;5087622;28;20448;-29
2022/12/06 11:42:33;;;;;;;10.50;7.50;;;5.70;99.90;;;;;;5087700;28;20423;-29
2022/12/06 11:45:17;;;;;;;10.50;8.47;;;5.70;99.90;;;;;;5087865;28;20432;-29
2022/12/06 11:47:43;;;;;;;9.37;7.97;;;5.70;99.90;;;;;;5088210;28;20176;-29
2022/12/06 11:50:16;;;;;;;9.90;8.20;;;5.80;99.90;;;;;;5087711;28;20862;-29
2022/12/06 11:53:03;;;;;;;11.87;9.20;;;5.90;99.90;;;;;;5087531;28;20430;-29
2022/12/06 11:55:38;;;;;;;11.57;8.70;;;5.90;99.90;;;;;;5088299;28;20418;-29
2022/12/06 11:58:14;;;;;;;9.03;7.30;;;5.80;99.90;;;;;;5087770;28;20410;-30
2022/12/06 12:01:04;;;;;;;11.27;8.47;;;5.90;99.90;;;;;;5087590;28;21135;-29
2022/12/06 12:03:36;;;;;;;12.00;8.87;;;5.90;99.90;;;;;;5076365;28;20435;-30
2022/12/06 12:06:14;;;;;;;9.97;8.60;;;6.00;99.90;;;;;;5067561;28;20599;-29
2022/12/06 12:08:39;;;;;;;12.80;9.10;;;6.00;99.90;;;;;;5067343;28;20411;-29
2022/12/06 12:11:05;;;;;;;12.30;10.60;;;6.10;99.90;;;;;;5067545;28;20426;-29
2022/12/06 12:13:43;;;;;;;12.13;9.10;;;5.80;99.90;;;;;;5084905;28;20724;-29
2022/12/06 12:16:21;;;;;;;12.47;9.43;;;5.90;99.90;;;;;;5086457;28;20533;-29
2022/12/06 12:18:52;;;;;;;12.37;9.97;;;6.00;99.90;;;;;;5087403;28;20773;-29
2022/12/06 12:21:33;;;;;;;12.80;9.60;;;6.10;99.90;;;;;;5087672;28;20964;-30
2022/12/06 12:23:59;;;;;;;10.17;9.03;;;6.00;99.90;;;;;;5087158;28;20427;-29
2022/12/06 12:26:36;;;;;;;12.13;9.87;;;6.20;99.90;;;;;;5087846;28;20418;-29
2022/12/06 12:29:14;;;;;;;14.43;11.07;;;6.10;99.90;;;;;;5085692;28;20422;-29
2022/12/06 12:31:52;;;;;;;14.00;10.40;;;6.20;99.90;;;;;;5075804;28;20414;-29
2022/12/06 12:34:19;;;;;;;16.60;10.67;;;6.00;99.90;;;;;;5069836;28;20419;-29
2022/12/06 12:36:51;;;;;;;13.93;10.60;;;6.00;99.90;;;;;;5070712;28;20506;-29
2022/12/06 12:39:43;;;;;;;14.10;11.40;;;6.10;99.90;;;;;;5078833;28;20505;-29
2022/12/06 12:42:30;;;;;;;13.27;9.47;;;6.20;99.90;;;;;;5091498;28;20418;-29
2022/12/06 12:44:59;;;;;;;12.80;9.30;;;6.10;99.90;;;;;;5090736;28;20901;-29
2022/12/06 12:47:25;;;;;;;10.70;8.43;;;6.30;99.90;;;;;;5091177;28;20939;-29
2022/12/06 12:50:19;;;;;;;11.30;8.77;;;6.20;99.90;;;;;;5090839;28;20455;-29
2022/12/06 12:52:45;;;;;;;10.73;8.10;;;6.20;99.90;;;;;;5091628;28;20411;-29
2022/12/06 12:55:20;;;;;;;9.53;6.40;;;6.30;99.90;;;;;;5089985;28;20417;-29
2022/12/06 12:57:49;;;;;;;9.33;7.03;;;6.30;99.90;;;;;;5078775;28;20849;-29
2022/12/06 13:00:23;;;;;;;7.77;6.20;;;6.30;99.90;;;;;;5077414;28;20466;-29
2022/12/06 13:03:16;;;;;;;9.50;6.17;;;6.20;99.90;;;;;;5075811;28;20850;-29
2022/12/06 13:05:45;;;;;;;8.10;6.17;;;6.20;99.90;;;;;;5090964;28;20781;-29
2022/12/06 13:08:20;;;;;;;8.47;5.83;;;6.30;99.90;;;;;;5091087;28;20821;-29
2022/12/06 13:10:51;;;;;;;7.47;5.90;;;6.30;99.90;;;;;;5090632;28;20413;-29
2022/12/06 13:13:35;;;;;;;10.90;6.50;;;6.20;99.90;;;;;;5074644;28;20524;-29
2022/12/06 13:16:05;;;;;;;10.60;6.60;;;6.20;99.90;;;;;;5070102;28;20435;-29
2022/12/06 13:18:49;;;;;;;8.50;6.17;;;6.40;99.90;;;;;;5070004;28;20408;-29
2022/12/06 13:21:24;;;;;;;7.13;5.83;;;6.20;99.90;;;;;;5086694;28;20458;-29
2022/12/06 13:23:58;;;;;;;8.17;6.17;;;6.20;99.90;;;;;;5090577;28;20402;-29